createdAt,value
2018-08-04T00:00:23.575Z,21.57
2018-08-04T00:02:51.817Z,23.07
2018-08-04T00:05:20.158Z,21.73
2018-08-04T00:07:48.589Z,21.90
2018-08-04T00:10:18.699Z,21.60
2018-08-04T00:12:49.536Z,21.03
2018-08-04T00:15:17.800Z,22.90
2018-08-04T00:17:46.756Z,22.60
2018-08-04T00:20:15.241Z,22.93
2018-08-04T00:22:43.488Z,21.67
2018-08-04T00:25:11.807Z,22.67
2018-08-04T00:27:40.077Z,21.50
2018-08-04T00:30:10.905Z,21.40
2018-08-04T00:32:39.309Z,20.77
2018-08-04T00:35:08.047Z,21.63
2018-08-04T00:37:36.338Z,21.37
2018-08-04T00:40:05.697Z,22.17
2018-08-04T00:42:33.900Z,21.63
2018-08-04T00:45:02.342Z,22.47
2018-08-04T00:47:30.602Z,22.27
2018-08-04T00:49:59.104Z,20.10
2018-08-04T00:52:27.400Z,21.10
2018-08-04T00:54:56.005Z,21.50
2018-08-04T00:57:24.315Z,20.87
2018-08-04T00:59:52.604Z,21.10
2018-08-04T01:02:20.924Z,20.80
2018-08-04T01:04:49.182Z,20.77
2018-08-04T01:07:17.204Z,20.80
2018-08-04T01:09:45.498Z,20.33
2018-08-04T01:12:13.735Z,21.37
2018-08-04T01:14:42.091Z,20.90
2018-08-04T01:17:10.428Z,20.73
2018-08-04T01:19:38.815Z,21.90
2018-08-04T01:22:07.046Z,20.10
2018-08-04T01:24:35.439Z,20.13
2018-08-04T01:27:03.749Z,21.27
2018-08-04T01:29:32.036Z,19.70
2018-08-04T01:32:00.306Z,20.17
2018-08-04T01:34:28.602Z,20.07
2018-08-04T01:36:56.938Z,19.70
2018-08-04T01:39:25.230Z,19.93
2018-08-04T01:41:54.378Z,20.70
2018-08-04T01:44:22.611Z,20.83
2018-08-04T01:46:50.888Z,19.87
2018-08-04T01:49:19.978Z,19.77
2018-08-04T01:51:48.254Z,21.90
2018-08-04T01:54:16.592Z,21.37
2018-08-04T01:56:44.956Z,20.73
2018-08-04T01:59:13.254Z,19.50
2018-08-04T02:01:41.553Z,20.90
2018-08-04T02:04:09.822Z,18.93
2018-08-04T02:06:38.107Z,19.60
2018-08-04T02:09:07.834Z,20.37
2018-08-04T02:11:36.176Z,20.73
2018-08-04T02:14:04.510Z,18.87
2018-08-04T02:16:32.844Z,19.60
2018-08-04T02:19:01.160Z,21.00
2018-08-04T02:21:29.502Z,19.27
2018-08-04T02:23:57.847Z,20.67
2018-08-04T02:26:26.171Z,19.77
2018-08-04T02:28:54.419Z,19.17
2018-08-04T02:31:22.746Z,20.10
2018-08-04T02:33:51.131Z,20.83
2018-08-04T02:36:19.504Z,20.17
2018-08-04T02:38:47.773Z,21.63
2018-08-04T02:41:16.049Z,21.13
2018-08-04T02:43:44.397Z,21.17
2018-08-04T02:46:12.707Z,21.80
2018-08-04T02:48:41.009Z,21.80
2018-08-04T02:51:09.260Z,21.63
2018-08-04T02:53:37.540Z,21.63
2018-08-04T02:56:05.849Z,20.73
2018-08-04T02:58:34.101Z,21.07
2018-08-04T03:01:02.400Z,20.40
2018-08-04T03:03:30.738Z,21.23
2018-08-04T03:05:59.078Z,22.20
2018-08-04T03:08:27.489Z,20.90
2018-08-04T03:10:55.731Z,21.40
2018-08-04T03:13:24.121Z,21.50
2018-08-04T03:15:52.386Z,21.17
2018-08-04T03:18:20.787Z,20.70
2018-08-04T03:20:49.102Z,20.10
2018-08-04T03:23:17.382Z,22.13
2018-08-04T03:25:45.700Z,21.27
2018-08-04T03:28:13.961Z,20.57
2018-08-04T03:30:42.420Z,21.07
2018-08-04T03:33:10.770Z,21.13
2018-08-04T03:35:39.124Z,19.17
2018-08-04T03:38:07.433Z,20.50
2018-08-04T03:40:35.675Z,19.37
2018-08-04T03:43:03.971Z,21.03
2018-08-04T03:45:32.340Z,20.43
2018-08-04T03:48:00.714Z,20.13
2018-08-04T03:50:29.064Z,19.70
2018-08-04T03:52:57.246Z,19.97
2018-08-04T03:55:25.331Z,19.87
2018-08-04T03:57:53.686Z,20.60
2018-08-04T04:00:21.990Z,20.57
2018-08-04T04:02:50.460Z,21.23
2018-08-04T04:05:18.684Z,21.00
2018-08-04T04:07:46.981Z,20.73
2018-08-04T04:10:15.494Z,19.50
2018-08-04T04:12:43.831Z,20.47
2018-08-04T04:15:12.159Z,21.33
2018-08-04T04:17:47.744Z,20.70
2018-08-04T04:20:17.610Z,20.87
2018-08-04T04:22:45.917Z,22.30
2018-08-04T04:25:14.256Z,20.70
2018-08-04T04:27:43.190Z,19.97
2018-08-04T04:30:11.970Z,20.30
2018-08-04T04:32:40.267Z,21.13
2018-08-04T04:35:08.595Z,20.93
2018-08-04T04:37:36.838Z,21.27
2018-08-04T04:40:06.063Z,20.13
2018-08-04T04:42:34.328Z,21.40
2018-08-04T04:45:02.650Z,21.30
2018-08-04T04:47:30.900Z,20.53
2018-08-04T04:49:59.249Z,21.00
2018-08-04T04:52:27.541Z,20.77
2018-08-04T04:54:56.151Z,20.37
2018-08-04T04:57:24.456Z,21.90
2018-08-04T04:59:52.706Z,20.77
2018-08-04T05:02:21.023Z,20.90
2018-08-04T05:04:49.361Z,21.50
2018-08-04T05:07:17.622Z,21.03
2018-08-04T05:09:45.911Z,21.87
2018-08-04T05:12:14.337Z,21.53
2018-08-04T05:14:42.825Z,20.60
2018-08-04T05:17:10.871Z,20.30
2018-08-04T05:19:39.188Z,22.00
2018-08-04T05:22:07.518Z,31.00
2018-08-04T05:24:35.816Z,29.60
2018-08-04T05:27:04.156Z,25.30
2018-08-04T05:29:32.520Z,23.30
2018-08-04T05:32:00.849Z,21.50
2018-08-04T05:34:29.170Z,21.70
2018-08-04T05:36:57.415Z,21.83
2018-08-04T05:39:25.730Z,22.43
2018-08-04T05:41:54.005Z,22.60
2018-08-04T05:44:22.313Z,20.80
2018-08-04T05:46:50.632Z,21.60
2018-08-04T05:49:19.006Z,20.30
2018-08-04T05:51:47.260Z,21.27
2018-08-04T05:54:15.225Z,21.60
2018-08-04T05:56:43.527Z,21.33
2018-08-04T05:59:11.863Z,20.53
2018-08-04T06:01:40.220Z,19.00
2018-08-04T06:04:08.517Z,21.33
2018-08-04T06:06:36.987Z,21.37
2018-08-04T06:09:08.187Z,20.77
2018-08-04T06:11:36.503Z,20.20
2018-08-04T06:14:04.840Z,18.80
2018-08-04T06:16:33.132Z,20.10
2018-08-04T06:19:01.450Z,20.07
2018-08-04T06:21:29.700Z,19.20
2018-08-04T06:23:58.024Z,18.50
2018-08-04T06:26:26.314Z,19.03
2018-08-04T06:28:54.594Z,20.10
2018-08-04T06:31:22.883Z,20.67
2018-08-04T06:33:51.235Z,18.33
2018-08-04T06:36:19.302Z,19.83
2018-08-04T06:38:47.586Z,20.10
2018-08-04T06:41:15.862Z,19.97
2018-08-04T06:43:44.128Z,20.20
2018-08-04T06:46:12.377Z,19.10
2018-08-04T06:48:40.685Z,19.57
2018-08-04T06:51:08.954Z,18.20
2018-08-04T06:53:37.329Z,19.47
2018-08-04T06:56:05.772Z,18.60
2018-08-04T06:58:34.064Z,19.73
2018-08-04T07:01:02.382Z,19.90
2018-08-04T07:03:30.706Z,19.63
2018-08-04T07:05:59.022Z,17.50
2018-08-04T07:08:27.001Z,19.27
2018-08-04T07:10:55.354Z,18.97
2018-08-04T07:13:23.662Z,18.50
2018-08-04T07:15:52.049Z,19.57
2018-08-04T07:18:20.384Z,19.00
2018-08-04T07:20:48.689Z,17.63
2018-08-04T07:23:16.970Z,18.17
2018-08-04T07:25:45.235Z,17.80
2018-08-04T07:28:13.547Z,18.80
2018-08-04T07:30:41.969Z,18.70
2018-08-04T07:33:10.351Z,19.10
2018-08-04T07:35:38.649Z,17.47
2018-08-04T07:38:06.990Z,19.42
2018-08-04T07:40:35.392Z,17.32
2018-08-04T07:43:03.654Z,19.32
2018-08-04T07:45:32.055Z,18.45
2018-08-04T07:48:00.309Z,17.80
2018-08-04T07:50:28.634Z,19.15
2018-08-04T07:52:58.020Z,19.90
2018-08-04T07:55:26.372Z,18.95
2018-08-04T07:57:54.702Z,20.97
2018-08-04T08:00:22.980Z,20.15
2018-08-04T08:02:51.264Z,19.60
2018-08-04T08:05:19.615Z,19.95
2018-08-04T08:07:47.934Z,18.50
2018-08-04T08:10:16.311Z,21.33
2018-08-04T08:13:47.747Z,18.67
2018-08-04T08:16:16.117Z,20.68
2018-08-04T08:18:44.520Z,18.95
2018-08-04T08:21:12.861Z,20.57
2018-08-04T08:23:41.183Z,20.68
2018-08-04T08:26:11.967Z,17.55
2018-08-04T08:28:41.191Z,18.57
2018-08-04T08:31:09.570Z,18.30
2018-08-04T08:33:38.734Z,19.35
2018-08-04T08:36:07.740Z,18.42
2018-08-04T08:38:36.054Z,19.95
2018-08-04T08:41:04.435Z,19.48
2018-08-04T08:43:32.750Z,20.55
2018-08-04T08:46:01.078Z,18.20
2018-08-04T08:48:29.385Z,17.98
2018-08-04T08:50:57.623Z,18.75
2018-08-04T08:53:25.954Z,18.52
2018-08-04T08:55:54.316Z,17.52
2018-08-04T08:58:22.697Z,17.82
2018-08-04T09:00:51.064Z,18.80
2018-08-04T09:03:19.429Z,18.82
2018-08-04T09:05:47.710Z,18.67
2018-08-04T09:08:16.043Z,19.77
2018-08-04T09:10:44.368Z,18.32
2018-08-04T09:13:12.672Z,17.48
2018-08-04T09:15:40.942Z,19.52
2018-08-04T09:18:09.249Z,18.57
2018-08-04T09:20:37.617Z,19.75
2018-08-04T09:23:05.982Z,20.45
2018-08-04T09:25:34.241Z,17.67
2018-08-04T09:28:02.531Z,18.15
2018-08-04T09:30:30.778Z,18.40
2018-08-04T09:32:59.078Z,18.67
2018-08-04T09:35:27.351Z,18.23
2018-08-04T09:37:55.763Z,18.20
2018-08-04T09:40:24.084Z,17.98
2018-08-04T09:42:52.325Z,18.15
2018-08-04T09:45:20.639Z,20.48
2018-08-04T09:47:49.032Z,18.40
2018-08-04T09:50:17.503Z,18.05
2018-08-04T09:52:45.824Z,17.02
2018-08-04T09:55:14.079Z,17.82
2018-08-04T09:57:42.645Z,18.95
2018-08-04T10:00:17.568Z,19.05
2018-08-04T10:02:45.986Z,18.02
2018-08-04T10:05:14.386Z,17.10
2018-08-04T10:07:42.777Z,18.07
2018-08-04T10:10:11.178Z,17.48
2018-08-04T10:12:39.434Z,16.32
2018-08-04T10:15:09.295Z,16.12
2018-08-04T10:17:37.611Z,16.90
2018-08-04T10:20:07.544Z,16.27
2018-08-04T10:22:35.874Z,17.65
2018-08-04T10:25:04.396Z,17.00
2018-08-04T10:27:32.843Z,16.52
2018-08-04T10:30:01.074Z,16.00
2018-08-04T10:32:29.479Z,15.45
2018-08-04T10:34:57.767Z,15.70
2018-08-04T10:37:26.179Z,16.55
2018-08-04T10:39:54.550Z,16.07
2018-08-04T10:42:22.951Z,15.95
2018-08-04T10:44:51.178Z,17.15
2018-08-04T10:47:19.510Z,14.90
2018-08-04T10:49:47.811Z,15.10
2018-08-04T10:52:16.165Z,15.53
2018-08-04T10:54:44.430Z,15.45
2018-08-04T10:57:12.667Z,13.53
2018-08-04T10:59:40.974Z,13.95
2018-08-04T11:02:09.405Z,12.55
2018-08-04T11:04:37.811Z,13.95
2018-08-04T11:07:06.276Z,12.35
2018-08-04T11:09:34.647Z,14.07
2018-08-04T11:12:03.011Z,12.82
2018-08-04T11:14:31.280Z,12.93
2018-08-04T11:16:59.728Z,13.28
2018-08-04T11:19:28.134Z,13.45
2018-08-04T11:21:56.526Z,13.75
2018-08-04T11:24:24.798Z,13.38
2018-08-04T11:26:53.198Z,14.23
2018-08-04T11:29:21.498Z,11.83
2018-08-04T11:31:49.784Z,12.73
2018-08-04T11:34:18.046Z,12.40
2018-08-04T11:36:46.395Z,12.07
2018-08-04T11:39:14.797Z,12.05
2018-08-04T11:41:43.282Z,11.80
2018-08-04T11:44:11.537Z,11.48
2018-08-04T11:46:39.779Z,11.45
2018-08-04T11:49:08.080Z,11.50
2018-08-04T11:51:36.399Z,10.95
2018-08-04T11:54:04.422Z,9.98
2018-08-04T11:57:57.214Z,10.68
2018-08-04T12:00:25.487Z,10.88
2018-08-04T12:02:53.730Z,11.22
2018-08-04T12:05:22.145Z,11.03
2018-08-04T12:07:50.363Z,11.35
2018-08-04T12:10:18.710Z,11.28
2018-08-04T12:12:47.046Z,11.38
2018-08-04T12:15:15.513Z,10.98
2018-08-04T12:17:43.836Z,10.65
2018-08-04T12:20:12.158Z,10.75
2018-08-04T12:22:40.449Z,11.38
2018-08-04T12:25:08.807Z,10.93
2018-08-04T12:27:37.195Z,11.08
2018-08-04T12:30:06.888Z,11.18
2018-08-04T12:32:35.220Z,11.43
2018-08-04T12:35:03.513Z,11.10
2018-08-04T12:37:33.212Z,10.20
2018-08-04T12:40:01.604Z,10.35
2018-08-04T12:42:29.889Z,10.95
2018-08-04T12:44:58.278Z,10.80
2018-08-04T12:47:26.604Z,10.03
2018-08-04T12:49:54.872Z,10.43
2018-08-04T12:52:23.167Z,10.08
2018-08-04T12:54:51.453Z,10.40
2018-08-04T12:57:19.830Z,9.63
2018-08-04T12:59:48.173Z,10.65
2018-08-04T13:02:16.518Z,10.10
2018-08-04T13:04:44.756Z,10.48
2018-08-04T13:07:12.995Z,10.10
2018-08-04T13:09:41.282Z,10.28
2018-08-04T13:12:09.606Z,10.08
2018-08-04T13:14:37.894Z,9.53
2018-08-04T13:17:06.231Z,10.65
2018-08-04T13:19:34.452Z,9.58
2018-08-04T13:22:02.851Z,10.18
2018-08-04T13:24:31.098Z,9.95
2018-08-04T13:26:59.441Z,10.85
2018-08-04T13:29:27.775Z,10.48
2018-08-04T13:31:56.130Z,10.38
2018-08-04T13:34:24.402Z,10.68
2018-08-04T13:36:52.664Z,9.95
2018-08-04T13:39:20.896Z,10.20
2018-08-04T13:41:49.271Z,9.85
2018-08-04T13:44:17.578Z,9.95
2018-08-04T13:46:45.866Z,10.38
2018-08-04T13:49:14.138Z,10.00
2018-08-04T13:51:42.582Z,9.35
2018-08-04T13:54:10.917Z,9.53
2018-08-04T13:56:39.242Z,10.03
2018-08-04T13:59:07.674Z,9.60
2018-08-04T14:01:36.029Z,10.53
2018-08-04T14:04:04.465Z,9.85
2018-08-04T14:06:32.824Z,11.20
2018-08-04T14:09:01.088Z,10.63
2018-08-04T14:11:29.417Z,10.32
2018-08-04T14:13:57.727Z,10.20
2018-08-04T14:16:25.994Z,10.72
2018-08-04T14:18:54.337Z,10.68
2018-08-04T14:21:22.583Z,9.48
2018-08-04T14:23:50.927Z,10.35
2018-08-04T14:26:19.199Z,11.00
2018-08-04T14:28:47.585Z,10.20
2018-08-04T14:31:15.551Z,10.68
2018-08-04T14:33:43.837Z,9.78
2018-08-04T14:36:12.117Z,9.78
2018-08-04T14:38:40.367Z,10.48
2018-08-04T14:41:08.717Z,9.83
2018-08-04T14:43:37.309Z,10.45
2018-08-04T14:46:05.993Z,9.90
2018-08-04T14:48:34.289Z,9.88
2018-08-04T14:51:02.647Z,10.00
2018-08-04T14:53:30.947Z,11.38
2018-08-04T14:55:59.285Z,10.28
2018-08-04T14:58:27.536Z,9.88
2018-08-04T15:00:55.928Z,9.48
2018-08-04T15:03:24.196Z,8.93
2018-08-04T15:05:52.456Z,9.73
2018-08-04T15:08:20.755Z,9.15
2018-08-04T15:10:49.039Z,8.55
2018-08-04T15:13:17.359Z,9.43
2018-08-04T15:15:45.792Z,9.05
2018-08-04T15:18:14.024Z,8.35
2018-08-04T15:20:42.574Z,8.43
2018-08-04T15:23:10.577Z,8.70
2018-08-04T15:25:38.626Z,8.55
2018-08-04T15:28:06.964Z,8.35
2018-08-04T15:30:35.240Z,8.50
2018-08-04T15:33:03.514Z,8.98
2018-08-04T15:35:31.962Z,8.75
2018-08-04T15:38:00.231Z,8.48
2018-08-04T15:40:28.494Z,9.03
2018-08-04T15:42:56.762Z,8.63
2018-08-04T15:45:25.099Z,8.40
2018-08-04T15:47:53.380Z,8.35
2018-08-04T15:50:22.484Z,8.70
2018-08-04T15:52:50.815Z,9.30
2018-08-04T15:55:19.114Z,9.15
2018-08-04T15:57:47.386Z,8.70
2018-08-04T16:00:15.703Z,8.53
2018-08-04T16:02:44.045Z,8.83
2018-08-04T16:05:12.428Z,8.83
2018-08-04T16:07:40.826Z,9.98
2018-08-04T16:10:09.134Z,9.80
2018-08-04T16:12:37.402Z,8.55
2018-08-04T16:15:05.747Z,8.80
2018-08-04T16:17:34.102Z,8.80
2018-08-04T16:20:02.422Z,9.18
2018-08-04T16:22:30.747Z,9.90
2018-08-04T16:24:58.969Z,9.55
2018-08-04T16:27:27.228Z,9.43
2018-08-04T16:29:55.522Z,8.93
2018-08-04T16:32:23.852Z,10.20
2018-08-04T16:34:52.170Z,9.80
2018-08-04T16:37:20.388Z,9.05
2018-08-04T16:39:48.675Z,9.45
2018-08-04T16:42:16.997Z,10.65
2018-08-04T16:44:45.229Z,9.73
2018-08-04T16:47:13.506Z,9.33
2018-08-04T16:49:41.913Z,9.75
2018-08-04T16:52:10.271Z,10.32
2018-08-04T16:54:38.569Z,10.23
2018-08-04T16:57:06.810Z,9.18
2018-08-04T16:59:35.226Z,9.03
2018-08-04T17:02:03.469Z,9.80
2018-08-04T17:04:31.706Z,9.30
2018-08-04T17:07:00.025Z,10.63
2018-08-04T17:09:28.286Z,11.68
2018-08-04T17:11:56.617Z,10.90
2018-08-04T17:14:24.921Z,11.68
2018-08-04T17:16:53.242Z,10.48
2018-08-04T17:19:21.527Z,10.40
2018-08-04T17:21:49.900Z,9.85
2018-08-04T17:24:18.210Z,11.20
2018-08-04T17:26:46.568Z,11.43
2018-08-04T17:29:14.957Z,10.85
2018-08-04T17:31:43.317Z,10.38
2018-08-04T17:34:11.611Z,10.95
2018-08-04T17:36:39.578Z,10.88
2018-08-04T17:39:09.407Z,10.75
2018-08-04T17:41:38.011Z,9.85
2018-08-04T17:44:06.579Z,10.20
2018-08-04T17:46:34.873Z,9.73
2018-08-04T17:49:03.279Z,9.88
2018-08-04T17:51:32.032Z,9.98
2018-08-04T17:54:00.446Z,9.88
2018-08-04T17:56:28.823Z,9.38
2018-08-04T17:58:57.078Z,11.20
2018-08-04T18:01:25.450Z,11.40
2018-08-04T18:03:53.788Z,10.18
2018-08-04T18:06:22.233Z,10.82
2018-08-04T18:08:50.529Z,11.33
2018-08-04T18:11:18.839Z,11.05
2018-08-04T18:13:47.190Z,10.60
2018-08-04T18:16:15.509Z,11.78
2018-08-04T18:18:43.813Z,12.40
2018-08-04T18:21:12.073Z,11.75
2018-08-04T18:23:40.355Z,12.00
2018-08-04T18:26:08.582Z,11.78
2018-08-04T18:28:36.991Z,11.70
2018-08-04T18:31:05.313Z,12.15
2018-08-04T18:33:33.716Z,11.50
2018-08-04T18:36:02.094Z,12.18
2018-08-04T18:38:30.478Z,12.28
2018-08-04T18:40:58.736Z,11.93
2018-08-04T18:43:27.182Z,12.50
2018-08-04T18:45:55.490Z,10.98
2018-08-04T18:48:23.890Z,11.95
2018-08-04T18:50:52.283Z,11.33
2018-08-04T18:53:20.766Z,12.55
2018-08-04T18:55:49.219Z,11.33
2018-08-04T18:58:19.505Z,11.97
2018-08-04T19:00:47.841Z,12.53
2018-08-04T19:03:16.319Z,12.70
2018-08-04T19:05:44.714Z,12.90
2018-08-04T19:08:13.010Z,12.90
2018-08-04T19:10:41.384Z,13.10
2018-08-04T19:13:09.719Z,13.05
2018-08-04T19:15:38.025Z,13.62
2018-08-04T19:18:07.364Z,13.35
2018-08-04T19:20:35.681Z,13.15
2018-08-04T19:23:04.306Z,12.50
2018-08-04T19:25:32.390Z,12.80
2018-08-04T19:28:00.449Z,12.68
2018-08-04T19:30:28.468Z,12.27
2018-08-04T19:32:56.749Z,12.00
2018-08-04T19:35:25.131Z,11.60
2018-08-04T19:37:53.406Z,12.20
2018-08-04T19:40:21.650Z,12.10
2018-08-04T19:42:49.932Z,13.30
2018-08-04T19:45:18.187Z,13.40
2018-08-04T19:47:46.568Z,14.30
2018-08-04T19:50:14.860Z,13.70
2018-08-04T19:52:43.196Z,13.63
2018-08-04T19:55:11.483Z,13.70
2018-08-04T19:57:39.835Z,12.77
2018-08-04T20:00:08.140Z,12.30
2018-08-04T20:02:36.140Z,14.50
2018-08-04T20:05:04.668Z,14.20
2018-08-04T20:07:32.978Z,13.97
2018-08-04T20:10:01.249Z,13.20
2018-08-04T20:12:29.562Z,13.97
2018-08-04T20:14:57.909Z,14.37
2018-08-04T20:17:26.215Z,13.07
2018-08-04T20:19:54.471Z,13.57
2018-08-04T20:22:22.734Z,14.77
2018-08-04T20:24:51.068Z,13.77
2018-08-04T20:27:19.379Z,13.80
2018-08-04T20:29:47.949Z,14.37
2018-08-04T20:32:15.904Z,14.70
2018-08-04T20:34:44.241Z,14.17
2018-08-04T20:37:12.586Z,13.80
2018-08-04T20:39:40.867Z,13.50
2018-08-04T20:42:09.143Z,13.40
2018-08-04T20:44:37.407Z,14.10
2018-08-04T20:47:05.784Z,13.43
2018-08-04T20:49:34.048Z,13.77
2018-08-04T20:52:02.408Z,13.20
2018-08-04T20:54:30.826Z,14.30
2018-08-04T20:56:59.126Z,14.13
2018-08-04T20:59:27.431Z,13.17
2018-08-04T21:01:59.729Z,12.67
2018-08-04T21:04:28.946Z,12.30
2018-08-04T21:06:57.284Z,13.03
2018-08-04T21:09:25.607Z,14.13
2018-08-04T21:11:55.012Z,13.63
2018-08-04T21:14:24.418Z,13.30
2018-08-04T21:16:53.838Z,14.23
2018-08-04T21:19:23.016Z,13.00
2018-08-04T21:21:51.333Z,12.33
2018-08-04T21:24:22.589Z,11.87
2018-08-04T21:26:51.963Z,14.30
2018-08-04T21:29:20.705Z,12.10
2018-08-04T21:31:49.034Z,12.60
2018-08-04T21:34:17.366Z,13.80
2018-08-04T21:36:45.695Z,14.03
2018-08-04T21:39:16.150Z,13.40
2018-08-04T21:41:45.253Z,12.73
2018-08-04T21:44:13.976Z,13.00
2018-08-04T21:46:44.732Z,13.83
2018-08-04T21:49:13.213Z,13.80
2018-08-04T21:51:43.175Z,12.70
2018-08-04T21:54:12.296Z,13.40
2018-08-04T21:56:40.948Z,12.80
2018-08-04T21:59:09.380Z,12.33
2018-08-04T22:01:37.928Z,12.80
2018-08-04T22:04:06.130Z,13.30
2018-08-04T22:06:44.217Z,13.90
2018-08-04T22:09:18.550Z,13.10
2018-08-04T22:11:46.859Z,13.50
2018-08-04T22:14:15.175Z,13.27
2018-08-04T22:16:43.511Z,13.23
2018-08-04T22:19:11.774Z,13.50
2018-08-04T22:21:40.072Z,14.33
2018-08-04T22:24:08.412Z,13.40
2018-08-04T22:26:36.786Z,13.03
2018-08-04T22:29:05.210Z,13.40
2018-08-04T22:31:33.597Z,12.63
2018-08-04T22:34:01.584Z,13.70
2018-08-04T22:36:29.841Z,14.50
2018-08-04T22:38:58.118Z,13.50
2018-08-04T22:41:26.377Z,13.47
2018-08-04T22:43:54.642Z,13.07
2018-08-04T22:46:23.992Z,13.33
2018-08-04T22:48:53.289Z,13.97
2018-08-04T22:51:26.285Z,13.83
2018-08-04T22:53:54.652Z,13.23
2018-08-04T22:56:22.978Z,12.77
2018-08-04T22:58:51.287Z,13.93
2018-08-04T23:01:19.610Z,13.37
2018-08-04T23:03:47.960Z,14.30
2018-08-04T23:06:16.200Z,13.60
2018-08-04T23:08:44.220Z,12.80
2018-08-04T23:11:12.501Z,13.53
2018-08-04T23:13:40.861Z,13.50
2018-08-04T23:16:09.159Z,13.43
2018-08-04T23:18:37.444Z,13.40
2018-08-04T23:21:06.093Z,13.50
2018-08-04T23:23:34.375Z,14.10
2018-08-04T23:26:02.689Z,13.03
2018-08-04T23:28:30.996Z,13.87
2018-08-04T23:30:59.278Z,14.60
2018-08-04T23:33:27.559Z,13.60
2018-08-04T23:35:55.911Z,13.70
2018-08-04T23:38:24.252Z,13.93
2018-08-04T23:40:52.543Z,13.57
2018-08-04T23:43:20.837Z,13.83
2018-08-04T23:45:49.113Z,13.87
2018-08-04T23:48:17.440Z,13.57
2018-08-04T23:50:45.812Z,13.20
2018-08-04T23:53:14.161Z,13.60
2018-08-04T23:55:42.548Z,13.77
2018-08-04T23:58:10.942Z,14.13
